Time;durP1;ratioP1;P1;durP2;ratioP2;P2;SDS_P1;SDS_P2;PMS_P1;PMS_P2;Temp;Humidity;BMP_temperature;BMP_pressure;BME280_temperature;BME280_humidity;BME280_pressure;Samples;Min_cycle;Max_cycle;Signal;HPM_P1;HPM_P2
2023/08/22 00:00:29;;;;;;;16.65;9.98;;;18.30;99.90;;;;;;5085329;28;20047;-74
2023/08/22 00:02:55;;;;;;;24.92;14.13;;;18.30;99.90;;;;;;5093362;28;20566;-74
2023/08/22 00:05:22;;;;;;;36.78;21.50;;;18.30;99.90;;;;;;5099938;28;20072;-75
2023/08/22 00:07:51;;;;;;;18.88;9.93;;;18.30;99.90;;;;;;5098198;28;20397;-75
2023/08/22 00:10:17;;;;;;;14.73;8.07;;;18.30;99.90;;;;;;5088371;28;20147;-74
2023/08/22 00:12:44;;;;;;;19.95;8.13;;;18.40;99.90;;;;;;5094736;28;20612;-75
2023/08/22 00:15:12;;;;;;;13.00;7.03;;;18.40;99.90;;;;;;5093599;28;20048;-74
2023/08/22 00:17:38;;;;;;;;;;;18.40;99.90;;;;;;5081927;28;20043;-75
2023/08/22 00:20:04;;;;;;;31.33;17.23;;;18.40;99.90;;;;;;5097259;28;20448;-75
2023/08/22 00:22:30;;;;;;;20.40;10.63;;;18.40;99.90;;;;;;5093392;28;20052;-74
2023/08/22 00:24:56;;;;;;;14.20;7.75;;;18.40;99.90;;;;;;5090304;28;20051;-74
2023/08/22 00:27:25;;;;;;;13.57;6.55;;;18.40;99.90;;;;;;5085556;28;20035;-75
2023/08/22 00:29:50;;;;;;;12.48;6.90;;;18.50;99.90;;;;;;5095267;28;20044;-75
2023/08/22 00:32:16;;;;;;;18.63;6.55;;;18.50;99.90;;;;;;5096094;28;20057;-75
2023/08/22 00:34:43;;;;;;;12.15;7.40;;;18.50;99.90;;;;;;5088579;28;20079;-75
2023/08/22 00:37:08;;;;;;;18.37;7.63;;;18.40;99.90;;;;;;5083771;28;20040;-75
2023/08/22 00:39:34;;;;;;;13.88;7.55;;;18.50;99.90;;;;;;5096258;28;20102;-74
2023/08/22 00:42:00;;;;;;;15.52;8.02;;;18.50;99.90;;;;;;5091686;28;20099;-75
2023/08/22 00:44:25;;;;;;;13.32;7.38;;;18.40;99.90;;;;;;5081397;28;20466;-74
2023/08/22 00:46:51;;;;;;;12.77;6.80;;;18.40;99.90;;;;;;5076322;28;20375;-75
2023/08/22 00:49:17;;;;;;;15.93;6.68;;;18.40;99.90;;;;;;5087091;28;20381;-76
2023/08/22 00:51:43;;;;;;;14.95;6.20;;;18.40;99.90;;;;;;5091569;28;20050;-76
2023/08/22 00:54:10;;;;;;;11.07;6.40;;;18.40;99.90;;;;;;5071625;28;20041;-75
2023/08/22 00:56:36;;;;;;;14.47;6.07;;;18.30;99.90;;;;;;5076312;28;20451;-75
2023/08/22 00:59:04;;;;;;;11.98;6.20;;;18.30;99.90;;;;;;5092411;28;20040;-75
2023/08/22 01:01:32;;;;;;;13.23;5.95;;;18.30;99.90;;;;;;5087856;28;20108;-75
2023/08/22 01:03:58;;;;;;;14.02;6.18;;;18.20;99.90;;;;;;5099728;28;20444;-75
2023/08/22 01:06:31;;;;;;;13.00;6.18;;;18.20;99.90;;;;;;5081512;27;20040;-75
2023/08/22 01:09:14;;;;;;;12.75;5.68;;;18.20;99.90;;;;;;5081017;28;20048;-75
2023/08/22 01:11:44;;;;;;;10.85;5.70;;;18.10;99.90;;;;;;5083455;28;20067;-75
2023/08/22 01:14:13;;;;;;;15.40;6.38;;;18.10;99.90;;;;;;5076638;28;20040;-75
2023/08/22 01:16:40;;;;;;;12.35;6.32;;;18.10;99.90;;;;;;5093716;28;20044;-75
2023/08/22 01:19:07;;;;;;;13.95;5.68;;;18.10;99.90;;;;;;5082749;28;20489;-75
2023/08/22 01:21:35;;;;;;;17.50;6.97;;;18.10;99.90;;;;;;5083986;28;20062;-75
2023/08/22 01:24:04;;;;;;;13.32;6.07;;;18.10;99.90;;;;;;5083103;28;20386;-74
2023/08/22 01:26:30;;;;;;;13.77;6.38;;;18.10;99.90;;;;;;5086954;28;20486;-75
2023/08/22 01:29:10;;;;;;;13.55;7.20;;;18.10;99.90;;;;;;5096023;28;20051;-74
2023/08/22 01:31:56;;;;;;;13.90;7.15;;;18.10;99.90;;;;;;5091986;28;20381;-75
2023/08/22 01:34:29;;;;;;;15.15;6.93;;;18.10;99.90;;;;;;5089316;28;20044;-75
2023/08/22 01:36:55;;;;;;;17.02;8.10;;;18.10;99.90;;;;;;5093677;28;20051;-75
2023/08/22 01:39:25;;;;;;;16.35;6.97;;;18.10;99.90;;;;;;5091311;28;20115;-75
2023/08/22 01:41:51;;;;;;;15.57;7.38;;;18.10;99.90;;;;;;5085265;28;20076;-75
2023/08/22 01:44:17;;;;;;;17.38;8.15;;;18.10;99.90;;;;;;5074644;28;20047;-74
2023/08/22 01:46:42;;;;;;;12.77;7.57;;;18.10;99.90;;;;;;5087763;28;20115;-75
2023/08/22 01:49:08;;;;;;;13.88;7.03;;;18.10;99.90;;;;;;5094634;28;20052;-74
2023/08/22 01:51:34;;;;;;;14.68;7.65;;;18.10;99.90;;;;;;5071061;28;20466;-75
2023/08/22 01:54:00;;;;;;;14.05;7.68;;;18.10;99.90;;;;;;5092819;28;20082;-75
2023/08/22 01:56:25;;;;;;;14.65;7.75;;;18.10;99.90;;;;;;5090778;28;20032;-75
2023/08/22 01:58:51;;;;;;;16.67;7.57;;;18.10;99.90;;;;;;5094773;28;20398;-74
2023/08/22 02:01:17;;;;;;;17.70;8.98;;;18.00;99.90;;;;;;5094072;28;20389;-74
2023/08/22 02:03:43;;;;;;;11.77;7.28;;;18.00;99.90;;;;;;5076521;28;20047;-75
2023/08/22 02:06:10;;;;;;;14.85;7.40;;;18.00;99.90;;;;;;5072217;28;20040;-75
2023/08/22 02:08:37;;;;;;;16.88;8.00;;;17.90;99.90;;;;;;5078822;28;20066;-75
2023/08/22 02:11:03;;;;;;;15.10;7.90;;;17.90;99.90;;;;;;5090928;28;20048;-75
2023/08/22 02:13:29;;;;;;;17.38;8.43;;;17.90;99.90;;;;;;5090748;28;20112;-75
2023/08/22 02:15:54;;;;;;;14.75;8.45;;;17.90;99.90;;;;;;5075966;28;20428;-75
2023/08/22 02:18:20;;;;;;;14.23;7.63;;;17.80;99.90;;;;;;5056232;28;20127;-74
2023/08/22 02:20:54;;;;;;;12.35;7.82;;;17.80;99.90;;;;;;5076318;28;20175;-75
2023/08/22 02:23:20;;;;;;;15.57;7.65;;;17.80;99.90;;;;;;5115304;27;20044;-75
2023/08/22 02:25:49;;;;;;;12.45;7.28;;;17.80;99.90;;;;;;5092665;28;20048;-76
2023/08/22 02:28:15;;;;;;;16.50;7.85;;;17.80;99.90;;;;;;5091469;28;20117;-75
2023/08/22 02:30:40;;;;;;;13.85;8.13;;;17.70;99.90;;;;;;5075347;28;20098;-75
2023/08/22 02:33:06;;;;;;;12.40;8.05;;;17.70;99.90;;;;;;5094051;28;20042;-74
2023/08/22 02:35:32;;;;;;;12.13;7.18;;;17.70;99.90;;;;;;5088605;28;20540;-75
2023/08/22 02:37:58;;;;;;;14.75;8.20;;;17.70;99.90;;;;;;5073342;28;20067;-75
2023/08/22 02:40:23;;;;;;;12.20;7.75;;;17.60;99.90;;;;;;5074415;28;20506;-75
2023/08/22 02:42:49;;;;;;;13.57;7.75;;;17.60;99.90;;;;;;5086198;28;20047;-76
2023/08/22 02:45:15;;;;;;;14.68;7.80;;;17.60;99.90;;;;;;5083300;28;20055;-75
2023/08/22 02:47:42;;;;;;;15.15;8.43;;;17.50;99.90;;;;;;5081291;28;20139;-74
2023/08/22 02:50:08;;;;;;;15.93;7.47;;;17.50;99.90;;;;;;5078144;28;20037;-75
2023/08/22 02:52:33;;;;;;;11.18;7.40;;;17.50;99.90;;;;;;5072109;28;20465;-75
2023/08/22 02:54:59;;;;;;;12.98;7.05;;;17.50;99.90;;;;;;5120764;27;20088;-75
2023/08/22 02:57:25;;;;;;;15.63;7.85;;;17.40;99.90;;;;;;5093627;28;20039;-75
2023/08/22 02:59:50;;;;;;;15.40;7.50;;;17.40;99.90;;;;;;5092978;28;20040;-75
2023/08/22 03:02:16;;;;;;;16.60;7.82;;;17.40;99.90;;;;;;5083809;28;20036;-75
2023/08/22 03:04:44;;;;;;;11.05;7.60;;;17.40;99.90;;;;;;5065091;28;20037;-75
2023/08/22 03:07:10;;;;;;;;;;;17.40;99.90;;;;;;5093419;28;20550;-75
2023/08/22 03:09:38;;;;;;;15.45;7.07;;;17.30;99.90;;;;;;5083235;28;19924;-74
2023/08/22 03:12:04;;;;;;;15.98;7.38;;;17.30;99.90;;;;;;5080678;28;20040;-74
2023/08/22 03:14:30;;;;;;;12.07;7.50;;;17.30;99.90;;;;;;5093793;28;20048;-74
2023/08/22 03:16:56;;;;;;;13.10;8.23;;;17.30;99.90;;;;;;5097451;28;20067;-74
2023/08/22 03:19:22;;;;;;;14.13;7.28;;;17.30;99.90;;;;;;5097491;28;20406;-75
2023/08/22 03:21:47;;;;;;;13.27;7.57;;;17.30;99.90;;;;;;5094784;28;20056;-75
2023/08/22 03:24:13;;;;;;;10.07;6.95;;;17.30;99.90;;;;;;5096289;28;20052;-75
2023/08/22 03:26:39;;;;;;;14.43;7.38;;;17.30;99.90;;;;;;5074888;28;20045;-74
2023/08/22 03:29:06;;;;;;;15.30;6.85;;;17.20;99.90;;;;;;5076820;28;20051;-75
2023/08/22 03:31:31;;;;;;;17.80;8.23;;;17.20;99.90;;;;;;5093590;28;20101;-74
2023/08/22 03:33:57;;;;;;;13.27;6.97;;;17.20;99.90;;;;;;5080122;28;20549;-74
2023/08/22 03:36:23;;;;;;;12.18;7.10;;;17.20;99.90;;;;;;5063173;28;20371;-74
2023/08/22 03:38:51;;;;;;;15.95;7.35;;;17.10;99.90;;;;;;5091528;28;20403;-74
2023/08/22 03:41:17;;;;;;;13.20;7.05;;;17.10;99.90;;;;;;5096852;28;20048;-73
2023/08/22 03:43:43;;;;;;;15.18;6.90;;;17.10;99.90;;;;;;5082718;28;20387;-74
2023/08/22 03:46:09;;;;;;;14.00;7.25;;;17.10;99.90;;;;;;5089105;28;20059;-74
2023/08/22 03:48:35;;;;;;;14.20;7.25;;;17.10;99.90;;;;;;5078630;28;20534;-74
2023/08/22 03:51:04;;;;;;;12.45;6.95;;;17.10;99.90;;;;;;5096664;28;20101;-74
2023/08/22 03:53:29;;;;;;;15.57;7.05;;;17.10;99.90;;;;;;5088168;28;20040;-75
2023/08/22 03:55:55;;;;;;;14.13;6.85;;;17.10;99.90;;;;;;5084683;28;20090;-74
2023/08/22 03:58:21;;;;;;;15.48;7.03;;;17.10;99.90;;;;;;5085130;28;20051;-74
2023/08/22 04:00:46;;;;;;;12.63;6.78;;;17.10;99.90;;;;;;5094826;28;20397;-74
2023/08/22 04:03:12;;;;;;;14.93;6.60;;;17.10;99.90;;;;;;5093183;28;20040;-74
2023/08/22 04:05:41;;;;;;;13.60;6.88;;;17.00;99.90;;;;;;5092966;28;20082;-75
2023/08/22 04:08:07;;;;;;;12.35;6.47;;;17.00;99.90;;;;;;5106816;28;20040;-74
2023/08/22 04:10:32;;;;;;;11.05;6.72;;;17.00;99.90;;;;;;5098952;28;20066;-73
2023/08/22 04:12:58;;;;;;;14.50;7.63;;;17.00;99.90;;;;;;5097947;28;20043;-74
2023/08/22 04:15:25;;;;;;;10.82;6.80;;;16.90;99.90;;;;;;5098618;28;20044;-74
2023/08/22 04:17:50;;;;;;;14.18;7.05;;;16.90;99.90;;;;;;5096057;28;20131;-75
2023/08/22 04:20:16;;;;;;;11.68;6.78;;;16.90;99.90;;;;;;5107588;28;20080;-74
2023/08/22 04:22:42;;;;;;;12.90;7.38;;;16.90;99.90;;;;;;5081346;28;20454;-75
2023/08/22 04:25:10;;;;;;;13.60;8.13;;;16.80;99.90;;;;;;5093565;28;20040;-74
2023/08/22 04:27:36;;;;;;;;;;;16.80;99.90;;;;;;5090728;28;20036;-75
2023/08/22 04:30:02;;;;;;;19.42;8.23;;;16.80;99.90;;;;;;5083177;28;19926;-74
2023/08/22 04:32:27;;;;;;;11.27;7.65;;;16.80;99.90;;;;;;5076201;28;20059;-74
2023/08/22 04:34:53;;;;;;;16.10;8.07;;;16.80;99.90;;;;;;5090536;28;20041;-74
2023/08/22 04:37:19;;;;;;;13.70;7.90;;;16.80;99.90;;;;;;5074105;28;20044;-75
2023/08/22 04:39:45;;;;;;;17.60;8.00;;;16.70;99.90;;;;;;5097715;28;20103;-74
2023/08/22 04:42:11;;;;;;;13.75;8.90;;;16.70;99.90;;;;;;5099384;28;20067;-73
2023/08/22 04:44:36;;;;;;;16.40;8.50;;;16.80;99.90;;;;;;5096881;28;20486;-74
2023/08/22 04:47:02;;;;;;;14.15;8.55;;;16.70;99.90;;;;;;5093193;28;20115;-75
2023/08/22 04:49:27;;;;;;;18.23;9.00;;;16.80;99.90;;;;;;5102306;28;20032;-74
2023/08/22 04:51:53;;;;;;;13.88;8.73;;;16.70;99.90;;;;;;5099385;28;20051;-74
2023/08/22 04:54:19;;;;;;;16.48;8.70;;;16.80;99.90;;;;;;5091037;28;20044;-73
2023/08/22 04:56:44;;;;;;;16.10;9.13;;;16.70;99.90;;;;;;5086521;28;20044;-75
2023/08/22 04:59:10;;;;;;;18.02;9.85;;;16.80;99.90;;;;;;5090853;28;20044;-74
2023/08/22 05:01:36;;;;;;;19.67;9.55;;;16.80;99.90;;;;;;5092436;28;21396;-74
2023/08/22 05:04:02;;;;;;;14.65;8.50;;;16.80;99.90;;;;;;5076641;28;20118;-74
2023/08/22 05:06:27;;;;;;;13.27;8.65;;;16.90;99.90;;;;;;5092047;28;20040;-74
2023/08/22 05:08:54;;;;;;;18.52;8.38;;;16.90;99.90;;;;;;5095715;28;20063;-74
2023/08/22 05:11:20;;;;;;;12.77;8.82;;;17.00;99.90;;;;;;5095445;28;20044;-74
2023/08/22 05:13:45;;;;;;;13.45;8.45;;;17.00;99.90;;;;;;5091485;28;20040;-74
2023/08/22 05:16:11;;;;;;;15.55;8.85;;;17.00;99.90;;;;;;5089329;28;20066;-74
2023/08/22 05:18:37;;;;;;;16.83;8.90;;;17.00;99.90;;;;;;5094782;28;20044;-74
2023/08/22 05:21:02;;;;;;;13.52;7.57;;;17.10;99.90;;;;;;5093860;28;20035;-73
2023/08/22 05:23:28;;;;;;;15.13;7.95;;;17.10;99.90;;;;;;5096243;28;20036;-75
2023/08/22 05:25:54;;;;;;;16.27;7.95;;;17.20;99.90;;;;;;5092087;28;20040;-74
2023/08/22 05:28:20;;;;;;;12.95;7.68;;;17.20;99.90;;;;;;5091398;28;20050;-73
2023/08/22 05:30:45;;;;;;;15.35;8.05;;;17.20;99.90;;;;;;5091317;28;20129;-74
2023/08/22 05:33:11;;;;;;;16.10;8.30;;;17.30;99.90;;;;;;5072738;28;20195;-74
2023/08/22 05:35:37;;;;;;;12.48;7.43;;;17.40;99.90;;;;;;5094932;28;20036;-74
2023/08/22 05:38:02;;;;;;;15.55;8.07;;;17.40;99.90;;;;;;5074638;28;20059;-73
2023/08/22 05:40:29;;;;;;;15.13;7.03;;;17.50;99.90;;;;;;5094160;28;20036;-74
2023/08/22 05:42:55;;;;;;;12.37;6.67;;;17.60;99.90;;;;;;5075934;28;20070;-73
2023/08/22 05:45:21;;;;;;;11.27;6.43;;;17.80;99.90;;;;;;5107953;28;20283;-74
2023/08/22 05:47:46;;;;;;;21.08;7.03;;;17.90;99.90;;;;;;5080387;28;20156;-74
2023/08/22 05:50:12;;;;;;;13.02;6.20;;;18.00;99.90;;;;;;5084054;28;20051;-74
2023/08/22 05:52:38;;;;;;;12.90;6.45;;;18.00;99.90;;;;;;5090354;28;20040;-75
2023/08/22 05:55:04;;;;;;;13.60;6.40;;;18.10;99.90;;;;;;5081708;28;20570;-75
2023/08/22 05:57:30;;;;;;;15.18;6.70;;;18.10;99.90;;;;;;5078905;28;20063;-74
2023/08/22 05:59:56;;;;;;;12.52;6.20;;;18.20;99.90;;;;;;5095934;28;20409;-74
2023/08/22 06:02:22;;;;;;;16.80;6.80;;;18.20;99.90;;;;;;5087526;28;20386;-74
2023/08/22 06:04:47;;;;;;;12.15;6.38;;;18.30;99.90;;;;;;5092746;28;20047;-75
2023/08/22 06:07:13;;;;;;;15.80;6.68;;;18.30;99.90;;;;;;5080334;28;20477;-75
2023/08/22 06:09:39;;;;;;;15.95;6.13;;;18.30;99.90;;;;;;5089076;28;20086;-74
2023/08/22 06:12:05;;;;;;;12.02;6.65;;;18.40;99.90;;;;;;5093529;28;20068;-74
2023/08/22 06:14:31;;;;;;;12.65;6.88;;;18.40;99.90;;;;;;5076708;28;20044;-74
2023/08/22 06:17:00;;;;;;;10.82;5.80;;;18.50;99.90;;;;;;5088969;28;20050;-74
2023/08/22 06:19:26;;;;;;;13.80;6.20;;;18.60;99.90;;;;;;5080483;28;20040;-73
2023/08/22 06:21:51;;;;;;;10.38;6.32;;;18.80;99.90;;;;;;5076023;28;20033;-74
2023/08/22 06:24:17;;;;;;;11.68;5.82;;;19.10;99.90;;;;;;5085952;28;20036;-74
2023/08/22 06:26:43;;;;;;;12.93;6.45;;;19.30;99.90;;;;;;5089396;28;20486;-74
2023/08/22 06:29:09;;;;;;;13.48;6.22;;;19.40;99.90;;;;;;5083260;28;20042;-74
2023/08/22 06:31:35;;;;;;;9.40;6.03;;;19.40;99.90;;;;;;5100496;28;20044;-73
2023/08/22 06:34:01;;;;;;;11.98;5.85;;;19.30;99.90;;;;;;5092230;28;20089;-74
2023/08/22 06:36:27;;;;;;;11.30;5.63;;;19.30;99.90;;;;;;5084593;28;20054;-75
2023/08/22 06:38:53;;;;;;;13.38;6.13;;;19.40;99.90;;;;;;5089648;28;20032;-74
2023/08/22 06:41:19;;;;;;;10.98;5.60;;;19.70;99.90;;;;;;5075647;28;20076;-74
2023/08/22 06:43:47;;;;;;;11.00;5.60;;;20.00;99.90;;;;;;5075819;28;20486;-74
2023/08/22 06:46:13;;;;;;;;;;;20.30;99.90;;;;;;5082687;28;20130;-74
2023/08/22 06:48:38;;;;;;;12.90;5.95;;;20.50;99.90;;;;;;5091836;28;20011;-74
2023/08/22 06:51:08;;;;;;;9.60;5.60;;;20.60;99.90;;;;;;5090926;28;20128;-73
2023/08/22 06:53:34;;;;;;;15.45;5.53;;;20.60;99.90;;;;;;5091633;28;20088;-75
2023/08/22 06:55:59;;;;;;;11.15;5.45;;;20.50;99.90;;;;;;5091872;28;20483;-74
2023/08/22 06:58:25;;;;;;;9.15;5.22;;;20.40;99.90;;;;;;5090621;28;20036;-74
2023/08/22 07:00:51;;;;;;;13.05;5.43;;;20.40;99.90;;;;;;5086115;28;20045;-74
2023/08/22 07:03:16;;;;;;;10.23;4.47;;;20.30;99.90;;;;;;5081183;28;20055;-74
2023/08/22 07:05:42;;;;;;;14.43;5.70;;;20.30;99.90;;;;;;5090293;28;20112;-73
2023/08/22 07:08:08;;;;;;;7.80;4.88;;;20.40;99.90;;;;;;5070898;28;20101;-74
2023/08/22 07:10:34;;;;;;;9.80;4.80;;;20.40;99.90;;;;;;5082523;28;20434;-75
2023/08/22 07:13:00;;;;;;;11.27;5.30;;;20.40;99.90;;;;;;5065995;28;20375;-74
2023/08/22 07:15:26;;;;;;;12.00;5.03;;;20.40;99.90;;;;;;5095916;28;20036;-76
2023/08/22 07:17:52;;;;;;;9.52;4.50;;;20.40;99.90;;;;;;5078104;28;20063;-75
2023/08/22 07:20:17;;;;;;;8.80;4.90;;;20.50;99.90;;;;;;5089891;28;20114;-74
2023/08/22 07:22:43;;;;;;;11.25;5.57;;;20.50;99.90;;;;;;5088039;28;20033;-75
2023/08/22 07:25:09;;;;;;;11.15;5.60;;;20.60;99.90;;;;;;5083393;28;20136;-75
2023/08/22 07:27:35;;;;;;;10.32;4.97;;;20.70;99.90;;;;;;5059733;28;20075;-74
2023/08/22 07:30:00;;;;;;;11.50;4.90;;;20.80;99.90;;;;;;5092526;28;20037;-74
2023/08/22 07:32:27;;;;;;;10.18;5.45;;;20.80;99.90;;;;;;5090822;28;20481;-75
2023/08/22 07:34:54;;;;;;;10.80;5.03;;;20.90;99.90;;;;;;5095919;28;20044;-75
2023/08/22 07:37:19;;;;;;;9.15;4.65;;;21.00;99.90;;;;;;5072270;28;20663;-75
2023/08/22 07:39:45;;;;;;;12.43;4.60;;;21.00;99.90;;;;;;5084856;28;20118;-75
2023/08/22 07:42:11;;;;;;;11.23;4.78;;;21.00;99.90;;;;;;5088295;28;20036;-76
2023/08/22 07:44:36;;;;;;;10.95;4.53;;;20.90;99.90;;;;;;5096059;28;20152;-76
2023/08/22 07:47:03;;;;;;;7.72;3.97;;;20.80;99.90;;;;;;5099573;28;20042;-75
2023/08/22 07:49:29;;;;;;;9.37;4.73;;;20.90;99.90;;;;;;5092826;28;20120;-74
2023/08/22 07:51:55;;;;;;;8.52;4.32;;;21.00;99.90;;;;;;5097447;28;20128;-74
2023/08/22 07:54:21;;;;;;;10.10;4.20;;;21.10;99.90;;;;;;5090758;28;20064;-75
2023/08/22 07:56:46;;;;;;;8.95;4.00;;;21.20;99.90;;;;;;5084068;28;20036;-75
2023/08/22 07:59:15;;;;;;;9.20;4.32;;;21.30;99.90;;;;;;5090655;28;20037;-75
2023/08/22 08:01:41;;;;;;;7.88;3.70;;;21.40;99.90;;;;;;5089004;28;20186;-75
2023/08/22 08:04:08;;;;;;;12.10;4.30;;;21.40;99.90;;;;;;5080676;28;20159;-75
2023/08/22 08:06:34;;;;;;;7.53;4.38;;;21.40;99.90;;;;;;5087256;28;20492;-74
2023/08/22 08:09:01;;;;;;;7.57;4.50;;;21.40;99.90;;;;;;5094635;28;20069;-74
2023/08/22 08:11:29;;;;;;;8.75;4.35;;;21.40;99.90;;;;;;5087721;28;20048;-75
2023/08/22 08:13:56;;;;;;;11.05;4.50;;;21.50;99.90;;;;;;5085024;28;20047;-75
2023/08/22 08:16:22;;;;;;;9.50;4.03;;;21.60;99.90;;;;;;5072665;28;20078;-76
2023/08/22 08:18:50;;;;;;;6.43;4.20;;;21.70;99.90;;;;;;5089795;28;20053;-75
2023/08/22 08:21:16;;;;;;;;;;;21.90;99.90;;;;;;5093403;28;20109;-75
2023/08/22 08:23:44;;;;;;;7.28;4.00;;;22.10;99.90;;;;;;5079252;28;20077;-75
2023/08/22 08:26:09;;;;;;;7.47;3.53;;;22.30;99.90;;;;;;5090429;28;20040;-75
2023/08/22 08:28:35;;;;;;;8.25;3.90;;;22.50;99.90;;;;;;5096906;28;20047;-74
2023/08/22 08:31:00;;;;;;;9.07;3.78;;;22.70;99.90;;;;;;5096770;28;20031;-74
2023/08/22 08:33:26;;;;;;;10.65;4.38;;;22.90;99.90;;;;;;5095322;28;20040;-75
2023/08/22 08:35:52;;;;;;;7.63;3.40;;;23.00;99.90;;;;;;5087404;28;20051;-74
2023/08/22 08:38:17;;;;;;;8.27;3.30;;;23.20;99.90;;;;;;5094585;28;20032;-74
2023/08/22 08:40:45;;;;;;;9.00;2.78;;;23.40;99.90;;;;;;5086958;28;20040;-74
2023/08/22 08:43:11;;;;;;;6.45;3.20;;;23.60;99.90;;;;;;5068385;28;20036;-74
2023/08/22 08:45:38;;;;;;;4.00;2.83;;;23.70;99.90;;;;;;5100332;28;20040;-75
2023/08/22 08:48:05;;;;;;;5.97;2.50;;;23.80;99.90;;;;;;5095333;28;20040;-75
2023/08/22 08:50:32;;;;;;;7.10;2.60;;;23.90;99.90;;;;;;5084977;28;20043;-76
2023/08/22 08:52:58;;;;;;;5.90;2.80;;;23.80;99.90;;;;;;5081860;28;20044;-75
2023/08/22 08:55:24;;;;;;;6.50;2.30;;;23.70;99.90;;;;;;5080791;28;20044;-75
2023/08/22 08:57:52;;;;;;;4.43;2.40;;;23.80;99.90;;;;;;5095824;28;20055;-75
2023/08/22 09:00:18;;;;;;;;;;;23.80;99.90;;;;;;5094267;28;20123;-75
2023/08/22 09:02:44;;;;;;;5.15;2.60;;;23.90;99.90;;;;;;5094781;28;20007;-76
2023/08/22 09:05:11;;;;;;;5.30;2.88;;;24.00;99.90;;;;;;5085907;28;20119;-76
2023/08/22 09:07:37;;;;;;;5.23;2.30;;;24.10;99.90;;;;;;5102871;28;20035;-76
2023/08/22 09:10:04;;;;;;;5.93;2.30;;;24.10;99.90;;;;;;5095356;28;20294;-75
2023/08/22 09:12:34;;;;;;;6.32;2.20;;;24.20;99.90;;;;;;5085196;28;20048;-75
2023/08/22 09:15:00;;;;;;;4.82;2.20;;;24.10;99.90;;;;;;5086639;28;20032;-75
2023/08/22 09:17:30;;;;;;;5.40;2.45;;;24.00;99.90;;;;;;5097890;28;20093;-74
2023/08/22 09:19:56;;;;;;;6.95;2.75;;;23.90;99.90;;;;;;5079856;28;20080;-75
2023/08/22 09:22:29;;;;;;;6.53;3.00;;;23.70;99.90;;;;;;5085578;28;20112;-74
2023/08/22 09:24:55;;;;;;;7.45;2.55;;;23.70;99.90;;;;;;5084090;28;20383;-75
2023/08/22 09:27:28;;;;;;;9.20;2.88;;;23.60;99.90;;;;;;5079208;28;20067;-75
2023/08/22 09:30:02;;;;;;;6.15;2.80;;;23.70;99.90;;;;;;5087593;28;20490;-74
2023/08/22 09:32:27;;;;;;;5.15;2.40;;;23.70;99.90;;;;;;5091295;28;20043;-76
2023/08/22 09:34:58;;;;;;;4.20;2.40;;;23.70;99.90;;;;;;5117004;27;20048;-75
2023/08/22 09:37:35;;;;;;;7.38;2.75;;;23.80;99.90;;;;;;5075115;28;20508;-75
2023/08/22 09:40:05;;;;;;;6.55;2.80;;;24.00;99.90;;;;;;5084273;28;20135;-76
2023/08/22 09:42:31;;;;;;;4.88;2.58;;;24.10;99.90;;;;;;5088570;28;20512;-75
2023/08/22 09:44:57;;;;;;;8.70;2.58;;;24.40;99.90;;;;;;5085097;28;20076;-75
2023/08/22 09:47:29;;;;;;;7.55;2.80;;;24.50;99.90;;;;;;5080002;28;20067;-75
2023/08/22 09:50:05;;;;;;;8.35;3.00;;;24.70;99.90;;;;;;5077743;28;20070;-75
2023/08/22 09:52:33;;;;;;;7.28;2.85;;;24.80;99.90;;;;;;5090004;28;20044;-75
2023/08/22 09:54:59;;;;;;;7.10;3.20;;;24.70;99.90;;;;;;5087002;28;20051;-76
2023/08/22 09:57:25;;;;;;;7.90;3.47;;;24.50;99.90;;;;;;5090236;28;20043;-75
2023/08/22 09:59:51;;;;;;;6.70;2.63;;;24.40;99.90;;;;;;5099147;28;20074;-75
2023/08/22 10:02:21;;;;;;;10.88;3.50;;;24.40;99.90;;;;;;5087902;28;20044;-75
2023/08/22 10:04:47;;;;;;;8.57;3.40;;;24.40;99.90;;;;;;5090060;28;20040;-75
2023/08/22 10:07:13;;;;;;;7.50;3.45;;;24.60;99.90;;;;;;5093150;28;20032;-74
2023/08/22 10:09:40;;;;;;;9.05;3.60;;;24.70;99.90;;;;;;5086769;28;20059;-74
2023/08/22 10:12:10;;;;;;;11.17;4.13;;;24.90;99.90;;;;;;5083952;28;20514;-74
2023/08/22 10:14:48;;;;;;;10.73;3.58;;;25.00;99.90;;;;;;5109844;27;20352;-75
2023/08/22 10:17:14;;;;;;;9.60;3.25;;;25.10;99.90;;;;;;5081919;28;20094;-75
2023/08/22 10:19:42;;;;;;;11.13;3.85;;;25.20;99.90;;;;;;5083654;28;20048;-74
2023/08/22 10:22:09;;;;;;;;;;;25.20;99.90;;;;;;5082847;28;20067;-74
2023/08/22 10:24:35;;;;;;;9.07;3.53;;;25.20;99.90;;;;;;5093955;28;19919;-75
2023/08/22 10:27:10;;;;;;;9.20;4.50;;;25.40;99.90;;;;;;5098819;28;20046;-74
2023/08/22 10:29:47;;;;;;;10.85;3.83;;;25.60;99.90;;;;;;5090803;28;20043;-75
2023/08/22 10:32:21;;;;;;;6.78;3.35;;;25.80;99.90;;;;;;5098064;28;20482;-74
2023/08/22 10:34:54;;;;;;;7.88;3.95;;;25.80;99.90;;;;;;5088733;28;20178;-75
2023/08/22 10:37:25;;;;;;;13.13;3.40;;;25.80;99.90;;;;;;5088797;28;20118;-75
2023/08/22 10:39:52;;;;;;;8.40;3.72;;;25.90;99.90;;;;;;5106189;28;20562;-74
2023/08/22 10:42:22;;;;;;;9.65;3.67;;;26.20;99.90;;;;;;5090815;28;20060;-75
2023/08/22 10:44:52;;;;;;;6.60;3.63;;;26.50;99.90;;;;;;5079112;28;20040;-76
2023/08/22 10:47:25;;;;;;;8.82;3.15;;;26.60;99.90;;;;;;5082388;28;20123;-74
2023/08/22 10:49:52;;;;;;;4.95;2.78;;;26.80;99.90;;;;;;5084052;28;20093;-74
2023/08/22 10:52:25;;;;;;;5.72;2.78;;;26.90;99.90;;;;;;5083245;28;20085;-75
2023/08/22 10:55:05;;;;;;;6.70;3.08;;;26.80;99.90;;;;;;5067038;28;20044;-75
2023/08/22 10:57:32;;;;;;;8.57;3.20;;;27.10;99.90;;;;;;5083772;28;20044;-74
2023/08/22 11:00:12;;;;;;;11.20;3.75;;;27.30;99.90;;;;;;5084963;28;20036;-75
2023/08/22 11:02:41;;;;;;;6.88;3.30;;;27.50;99.90;;;;;;5081321;28;20394;-74
2023/08/22 11:05:10;;;;;;;12.80;2.88;;;27.70;99.10;;;;;;5087054;28;20055;-73
2023/08/22 11:07:37;;;;;;;8.52;2.95;;;27.80;98.60;;;;;;5094004;28;20173;-74
2023/08/22 11:10:05;;;;;;;7.32;3.30;;;28.00;97.80;;;;;;5095321;28;20062;-75
2023/08/22 11:12:31;;;;;;;10.55;3.45;;;28.10;97.40;;;;;;5094999;28;20124;-76
2023/08/22 11:15:00;;;;;;;8.95;3.50;;;28.10;97.60;;;;;;5094281;28;20051;-74
2023/08/22 11:17:26;;;;;;;5.32;2.80;;;28.10;97.30;;;;;;5075013;28;20044;-75
2023/08/22 11:19:53;;;;;;;11.80;3.13;;;28.20;95.80;;;;;;5082650;28;20056;-74
2023/08/22 11:22:19;;;;;;;8.60;2.70;;;28.30;96.20;;;;;;5082712;28;20079;-75
2023/08/22 11:24:48;;;;;;;7.90;2.90;;;28.30;96.50;;;;;;5084223;28;20048;-74
2023/08/22 11:27:14;;;;;;;5.63;2.78;;;28.30;96.20;;;;;;5085895;28;20044;-74
2023/08/22 11:29:43;;;;;;;6.60;2.60;;;28.10;95.70;;;;;;5077304;28;20037;-74
2023/08/22 11:32:27;;;;;;;5.30;2.33;;;28.10;95.60;;;;;;5082943;28;20045;-75
2023/08/22 11:34:59;;;;;;;12.65;2.95;;;28.10;95.10;;;;;;5085333;28;20044;-74
2023/08/22 11:37:26;;;;;;;6.22;1.92;;;28.20;95.00;;;;;;5083010;28;20045;-75
2023/08/22 11:39:52;;;;;;;6.43;2.00;;;28.30;95.70;;;;;;5075168;28;20494;-75
2023/08/22 11:42:24;;;;;;;5.50;2.10;;;28.70;95.50;;;;;;5092222;28;20381;-75
2023/08/22 11:45:11;;;;;;;10.73;2.80;;;28.90;94.80;;;;;;5090458;28;20052;-75
2023/08/22 11:47:48;;;;;;;8.48;2.00;;;29.10;94.50;;;;;;5066180;28;20044;-72
2023/08/22 11:50:24;;;;;;;;;;;29.30;93.80;;;;;;5089668;28;20055;-74
2023/08/22 11:52:57;;;;;;;7.63;2.17;;;29.20;92.90;;;;;;5094936;28;19927;-73
2023/08/22 11:55:25;;;;;;;3.95;1.98;;;29.10;93.50;;;;;;5076012;28;20424;-73
2023/08/22 11:57:55;;;;;;;6.03;2.00;;;29.10;92.10;;;;;;5092556;28;20048;-74
2023/08/22 12:00:21;;;;;;;6.80;2.53;;;28.80;91.60;;;;;;5085960;28;20064;-74
2023/08/22 12:02:54;;;;;;;5.25;2.03;;;28.40;92.30;;;;;;5097243;28;20047;-73
2023/08/22 12:05:30;;;;;;;4.97;1.80;;;28.30;93.70;;;;;;5090946;28;20176;-74
2023/08/22 12:07:57;;;;;;;6.18;1.65;;;28.40;93.90;;;;;;5113801;27;20387;-73
2023/08/22 12:10:23;;;;;;;5.25;1.75;;;28.60;91.60;;;;;;5095974;28;20059;-74
2023/08/22 12:12:48;;;;;;;9.05;1.67;;;28.60;91.90;;;;;;5081805;28;20056;-74
2023/08/22 12:15:14;;;;;;;3.58;1.70;;;28.50;90.60;;;;;;5083991;28;20052;-75
2023/08/22 12:17:40;;;;;;;6.05;1.92;;;28.20;92.20;;;;;;5086699;28;20430;-74
2023/08/22 12:20:06;;;;;;;3.95;1.38;;;28.20;92.70;;;;;;5089697;28;20420;-75
2023/08/22 12:22:33;;;;;;;4.75;1.73;;;28.40;92.00;;;;;;5087778;28;20055;-74
2023/08/22 12:24:59;;;;;;;4.65;1.92;;;28.50;90.50;;;;;;5087750;28;20409;-74
2023/08/22 12:27:27;;;;;;;4.22;1.80;;;28.60;91.60;;;;;;5083359;28;20119;-75
2023/08/22 12:29:53;;;;;;;3.45;1.50;;;28.70;91.90;;;;;;5081549;28;20047;-75
2023/08/22 12:32:18;;;;;;;3.63;1.50;;;28.90;92.30;;;;;;5084239;28;20040;-75
2023/08/22 12:34:44;;;;;;;3.90;1.55;;;29.10;91.30;;;;;;5093536;28;20051;-74
2023/08/22 12:37:10;;;;;;;3.35;1.77;;;29.30;91.00;;;;;;5086314;28;20462;-75
2023/08/22 12:39:36;;;;;;;4.43;1.80;;;29.40;90.90;;;;;;5084337;28;20029;-75
2023/08/22 12:42:02;;;;;;;4.95;2.00;;;29.60;90.90;;;;;;5087324;28;20067;-74